Knot On Call — 2ISI8 — position and weather

sailwx.info

Track history (hours):
 
Tides and Currents Weather Stations Pressure Air Temp Water Temp Dewpoint Dewpoint Depression Visibility Wind Speed Wind Dir Waves Ship Positions

Knot On Call

Last reported at 2018-Feb-05 12:59 UTC. Time now 2018-Feb-25 09:56 UTC.
Position N 17°04' W 061°53'.
Warning: this ship's position is 19 days out of date.

Length 18 m.

Type: Sailing vessel. MMSI: 235112419.

Date/timePositionNaut miles runAvg speedWind from/ knotsBaromVisibWave heightAir tempDewpointWater temp
2018-Feb-05 12:59N 17°04' W 061°53'  
2018-Jan-30 05:23N 17°04' W 061°53'0 0.0
2018-Jan-30 04:59N 17°04' W 061°53'0 0.0
2018-Jan-29 23:14N 17°04' W 061°53'0 0.0
2018-Jan-29 13:53N 17°04' W 061°53'0 0.0
2018-Jan-27 17:49N 17°04' W 061°53'0 0.3
2018-Jan-27 17:30N 17°04' W 061°53'0 0.0
2018-Jan-27 16:54N 17°04' W 061°53'0 0.0
2018-Jan-27 16:30N 17°04' W 061°53'0 0.0
2018-Jan-27 15:57N 17°04' W 061°53'0 0.0
2018-Jan-27 15:27N 17°04' W 061°53'0 0.0
2018-Jan-27 14:57N 17°04' W 061°53'0 0.0
2018-Jan-27 14:30N 17°04' W 061°53'0 0.0
2018-Jan-27 13:57N 17°04' W 061°53'0 0.0
2018-Jan-27 13:30N 17°04' W 061°53'0 0.0
2018-Jan-27 12:57N 17°04' W 061°53'0 0.0
2018-Jan-27 12:30N 17°04' W 061°53'0 0.0
2018-Jan-27 11:57N 17°04' W 061°53'0 0.0
2018-Jan-27 11:30N 17°04' W 061°53'0 0.0
2018-Jan-27 11:00N 17°04' W 061°53'0 0.0
2018-Jan-27 10:30N 17°04' W 061°53'0 0.0
2018-Jan-27 10:00N 17°04' W 061°53'0 0.0
2018-Jan-27 09:30N 17°04' W 061°53'0 0.0
2018-Jan-27 09:00N 17°04' W 061°53'0 0.0
2018-Jan-27 08:30N 17°04' W 061°53'0 0.0
2018-Jan-27 08:00N 17°04' W 061°53'0 0.0
2018-Jan-27 07:30N 17°04' W 061°53'0 0.0
2018-Jan-27 07:00N 17°04' W 061°53'0 0.0
2018-Jan-27 06:30N 17°04' W 061°53'0 0.0
2018-Jan-27 06:00N 17°04' W 061°53'0 0.0
2018-Jan-27 05:30N 17°04' W 061°53'0 0.0
2018-Jan-27 05:00N 17°04' W 061°53'0 0.0
2018-Jan-27 04:30N 17°04' W 061°53'0 0.0
2018-Jan-27 04:00N 17°04' W 061°53'0 0.0
2018-Jan-27 03:30N 17°04' W 061°53'0 0.0
2018-Jan-27 03:00N 17°04' W 061°53'0 0.0
2018-Jan-27 02:30N 17°04' W 061°53'0 0.0
2018-Jan-27 02:00N 17°04' W 061°53'0 0.0
2018-Jan-27 01:30N 17°04' W 061°53'0 0.0
2018-Jan-27 00:57N 17°04' W 061°53'0 0.0
2018-Jan-27 00:27N 17°04' W 061°53'0 0.0
2018-Jan-27 00:00N 17°04' W 061°53'0 0.0
2018-Jan-26 23:30N 17°04' W 061°53'0 0.0
2018-Jan-26 22:57N 17°04' W 061°53'0 0.0
2018-Jan-26 22:30N 17°04' W 061°53'0 0.0
2018-Jan-26 22:00N 17°04' W 061°53'0 0.0
2018-Jan-26 21:30N 17°04' W 061°53'0 0.0
2018-Jan-26 21:00N 17°04' W 061°53'0 0.0
2018-Jan-26 20:30N 17°04' W 061°53'0 0.0
2018-Jan-26 20:00N 17°04' W 061°53'1 2.2
2018-Jan-26 19:30N 17°05' W 061°54'5 5.5
2018-Jan-26 18:37N 17°01' W 061°58'1 5.2
2018-Jan-26 18:29N 17°01' W 061°59'3 6.4
2018-Jan-26 18:00N 16°59' W 062°01'4 7.1
2018-Jan-26 17:30N 16°56' W 062°04'4 7.4
2018-Jan-26 17:00N 16°53' W 062°05'3 5.3
2018-Jan-26 16:29N 16°55' W 062°07'3 6.0
2018-Jan-26 15:58N 16°57' W 062°09'3 5.0
2018-Jan-26 15:19N 16°54' W 062°11'2 6.4
2018-Jan-26 15:00N 16°52' W 062°11'3 5.7
2018-Jan-26 14:30N 16°50' W 062°12'  
Track history (hours):
 
Tides and Currents Weather Stations Pressure Air Temp Water Temp Dewpoint Dewpoint Depression Visibility Wind Speed Wind Dir Waves Ship Positions

Knot On Call

Last reported at 2018-Feb-05 12:59 UTC. Time now 2018-Feb-25 09:56 UTC.
Position N 17°04' W 061°53'.
Warning: this ship's position is 19 days out of date.

Length 18 m.

Type: Sailing vessel. MMSI: 235112419.

Date/timePositionNaut miles runAvg speedWind from/ knotsBaromVisibWave heightAir tempDewpointWater temp
2018-Feb-05 12:59N 17°04' W 061°53'  
2018-Jan-30 05:23N 17°04' W 061°53'0 0.0
2018-Jan-30 04:59N 17°04' W 061°53'0 0.0
2018-Jan-29 23:14N 17°04' W 061°53'0 0.0
2018-Jan-29 13:53N 17°04' W 061°53'0 0.0
2018-Jan-27 17:49N 17°04' W 061°53'0 0.3
2018-Jan-27 17:30N 17°04' W 061°53'0 0.0
2018-Jan-27 16:54N 17°04' W 061°53'0 0.0
2018-Jan-27 16:30N 17°04' W 061°53'0 0.0
2018-Jan-27 15:57N 17°04' W 061°53'0 0.0
2018-Jan-27 15:27N 17°04' W 061°53'0 0.0
2018-Jan-27 14:57N 17°04' W 061°53'0 0.0
2018-Jan-27 14:30N 17°04' W 061°53'0 0.0
2018-Jan-27 13:57N 17°04' W 061°53'0 0.0
2018-Jan-27 13:30N 17°04' W 061°53'0 0.0
2018-Jan-27 12:57N 17°04' W 061°53'0 0.0
2018-Jan-27 12:30N 17°04' W 061°53'0 0.0
2018-Jan-27 11:57N 17°04' W 061°53'0 0.0
2018-Jan-27 11:30N 17°04' W 061°53'0 0.0
2018-Jan-27 11:00N 17°04' W 061°53'0 0.0
2018-Jan-27 10:30N 17°04' W 061°53'0 0.0
2018-Jan-27 10:00N 17°04' W 061°53'0 0.0
2018-Jan-27 09:30N 17°04' W 061°53'0 0.0
2018-Jan-27 09:00N 17°04' W 061°53'0 0.0
2018-Jan-27 08:30N 17°04' W 061°53'0 0.0
2018-Jan-27 08:00N 17°04' W 061°53'0 0.0
2018-Jan-27 07:30N 17°04' W 061°53'0 0.0
2018-Jan-27 07:00N 17°04' W 061°53'0 0.0
2018-Jan-27 06:30N 17°04' W 061°53'0 0.0
2018-Jan-27 06:00N 17°04' W 061°53'0 0.0
2018-Jan-27 05:30N 17°04' W 061°53'0 0.0
2018-Jan-27 05:00N 17°04' W 061°53'0 0.0
2018-Jan-27 04:30N 17°04' W 061°53'0 0.0
2018-Jan-27 04:00N 17°04' W 061°53'0 0.0
2018-Jan-27 03:30N 17°04' W 061°53'0 0.0
2018-Jan-27 03:00N 17°04' W 061°53'0 0.0
2018-Jan-27 02:30N 17°04' W 061°53'0 0.0
2018-Jan-27 02:00N 17°04' W 061°53'0 0.0
2018-Jan-27 01:30N 17°04' W 061°53'0 0.0
2018-Jan-27 00:57N 17°04' W 061°53'0 0.0
2018-Jan-27 00:27N 17°04' W 061°53'0 0.0
2018-Jan-27 00:00N 17°04' W 061°53'0 0.0
2018-Jan-26 23:30N 17°04' W 061°53'0 0.0
2018-Jan-26 22:57N 17°04' W 061°53'0 0.0
2018-Jan-26 22:30N 17°04' W 061°53'0 0.0
2018-Jan-26 22:00N 17°04' W 061°53'0 0.0
2018-Jan-26 21:30N 17°04' W 061°53'0 0.0
2018-Jan-26 21:00N 17°04' W 061°53'0 0.0
2018-Jan-26 20:30N 17°04' W 061°53'0 0.0
2018-Jan-26 20:00N 17°04' W 061°53'1 2.2
2018-Jan-26 19:30N 17°05' W 061°54'5 5.5
2018-Jan-26 18:37N 17°01' W 061°58'1 5.2
2018-Jan-26 18:29N 17°01' W 061°59'3 6.4
2018-Jan-26 18:00N 16°59' W 062°01'4 7.1
2018-Jan-26 17:30N 16°56' W 062°04'4 7.4
2018-Jan-26 17:00N 16°53' W 062°05'3 5.3
2018-Jan-26 16:29N 16°55' W 062°07'3 6.0
2018-Jan-26 15:58N 16°57' W 062°09'3 5.0
2018-Jan-26 15:19N 16°54' W 062°11'2 6.4
2018-Jan-26 15:00N 16°52' W 062°11'3 5.7
2018-Jan-26 14:30N 16°50' W 062°12'  

Dump ship's entire track history